createdAt,value
2022-12-27T00:05:21.540Z,19.08
2022-12-27T00:10:43.521Z,19.06
2022-12-27T00:16:07.942Z,19.05
2022-12-27T00:21:30.086Z,19.03
2022-12-27T00:26:51.794Z,19.00
2022-12-27T00:32:13.628Z,18.98
2022-12-27T00:37:35.344Z,18.97
2022-12-27T00:42:57.055Z,18.96
2022-12-27T00:48:18.905Z,18.93
2022-12-27T00:53:41.207Z,18.89
2022-12-27T00:59:04.909Z,18.88
2022-12-27T01:04:26.700Z,18.85
2022-12-27T01:09:48.405Z,18.84
2022-12-27T01:15:10.673Z,18.83
2022-12-27T01:20:32.414Z,18.80
2022-12-27T01:26:02.195Z,18.81
2022-12-27T01:31:28.063Z,18.76
2022-12-27T01:36:50.762Z,18.74
2022-12-27T01:42:36.324Z,18.73
2022-12-27T01:48:13.256Z,18.73
2022-12-27T01:53:41.929Z,18.70
2022-12-27T01:59:08.336Z,18.69
2022-12-27T02:04:32.269Z,18.68
2022-12-27T02:09:57.339Z,18.65
2022-12-27T02:15:19.117Z,18.63
2022-12-27T02:21:39.103Z,18.64
2022-12-27T02:27:32.973Z,18.60
2022-12-27T02:33:00.539Z,18.57
2022-12-27T02:38:36.211Z,18.57
2022-12-27T02:44:31.281Z,18.55
2022-12-27T02:50:11.713Z,18.53
2022-12-27T02:56:34.063Z,18.53
2022-12-27T03:02:43.948Z,18.51
2022-12-27T03:08:23.079Z,18.50
2022-12-27T03:14:03.355Z,18.47
2022-12-27T03:19:52.784Z,18.46
2022-12-27T03:25:29.354Z,18.44
2022-12-27T03:31:15.964Z,18.43
2022-12-27T03:36:56.195Z,18.41
2022-12-27T03:42:41.413Z,18.40
2022-12-27T03:48:06.455Z,18.38
2022-12-27T03:53:45.229Z,18.38
2022-12-27T03:59:07.889Z,18.35
2022-12-27T04:04:29.629Z,18.36
2022-12-27T04:10:09.563Z,18.34
2022-12-27T04:15:50.605Z,18.32
2022-12-27T04:21:30.568Z,18.30
2022-12-27T04:27:11.149Z,18.29
2022-12-27T04:32:51.186Z,18.27
2022-12-27T04:38:12.959Z,18.26
2022-12-27T04:43:53.497Z,18.25
2022-12-27T04:49:40.911Z,18.25
2022-12-27T04:55:12.057Z,18.24
2022-12-27T05:00:52.592Z,18.21
2022-12-27T05:06:14.608Z,18.20
2022-12-27T05:11:54.616Z,18.19
2022-12-27T05:17:16.309Z,18.18
2022-12-27T05:22:56.923Z,18.17
2022-12-27T05:28:18.639Z,18.15
2022-12-27T05:33:40.360Z,18.14
2022-12-27T05:39:02.152Z,18.13
2022-12-27T05:44:23.874Z,18.12
2022-12-27T05:49:45.593Z,18.11
2022-12-27T05:55:07.730Z,18.10
2022-12-27T06:00:29.432Z,18.10
2022-12-27T06:05:51.353Z,18.09
2022-12-27T06:11:15.338Z,18.10
2022-12-27T06:16:37.201Z,18.08
2022-12-27T06:21:59.014Z,18.10
2022-12-27T06:27:20.748Z,18.10
2022-12-27T06:32:42.470Z,18.10
2022-12-27T06:38:04.231Z,18.10
2022-12-27T06:43:26.187Z,18.09
2022-12-27T06:48:47.956Z,18.08
2022-12-27T06:54:09.870Z,18.08
2022-12-27T06:59:31.602Z,18.07
2022-12-27T07:04:53.306Z,18.05
2022-12-27T07:10:15.111Z,18.05
2022-12-27T07:15:39.056Z,18.03
2022-12-27T07:21:09.052Z,18.04
2022-12-27T07:26:31.124Z,18.00
2022-12-27T07:31:52.914Z,17.98
2022-12-27T07:37:14.701Z,17.98
2022-12-27T07:42:36.426Z,17.95
2022-12-27T07:47:58.260Z,17.94
2022-12-27T07:53:19.974Z,17.93
2022-12-27T07:58:46.983Z,17.92
2022-12-27T08:04:08.760Z,17.91
2022-12-27T08:09:34.113Z,17.92
2022-12-27T08:14:55.932Z,17.92
2022-12-27T08:20:17.680Z,17.96
2022-12-27T08:25:44.784Z,17.98
2022-12-27T08:31:12.631Z,18.02
2022-12-27T08:36:54.531Z,18.02
2022-12-27T08:42:16.094Z,18.03
2022-12-27T08:47:38.202Z,18.03
2022-12-27T08:53:01.421Z,18.04
2022-12-27T08:58:23.831Z,18.03
2022-12-27T09:03:45.583Z,18.03
2022-12-27T09:09:07.402Z,18.03
2022-12-27T09:14:29.305Z,18.03
2022-12-27T09:19:51.116Z,18.03
2022-12-27T09:25:12.932Z,18.02
2022-12-27T09:30:34.738Z,18.02
2022-12-27T09:36:08.156Z,18.03
2022-12-27T09:47:44.315Z,17.98
2022-12-27T09:53:17.711Z,17.98
2022-12-27T09:58:54.657Z,17.99
2022-12-27T10:04:19.172Z,17.96
2022-12-27T10:09:46.096Z,17.96
2022-12-27T10:15:21.145Z,17.97
2022-12-27T10:20:55.071Z,17.94
2022-12-27T10:26:19.196Z,17.92
2022-12-27T10:31:44.344Z,17.93
2022-12-27T10:37:06.155Z,17.93
2022-12-27T10:42:33.834Z,17.94
2022-12-27T10:47:58.606Z,17.95
2022-12-27T10:53:37.776Z,17.96
2022-12-27T10:59:20.417Z,17.95
2022-12-27T11:04:59.942Z,17.95
2022-12-27T11:10:24.243Z,17.92
2022-12-27T11:15:58.764Z,17.90
2022-12-27T11:21:27.571Z,17.91
2022-12-27T11:26:55.023Z,17.92
2022-12-27T11:32:16.828Z,17.93
2022-12-27T11:37:40.105Z,17.96
2022-12-27T11:43:09.457Z,17.96
2022-12-27T11:48:41.073Z,17.94
2022-12-27T11:54:43.096Z,17.91
2022-12-27T12:00:16.634Z,17.87
2022-12-27T12:06:10.711Z,17.82
2022-12-27T12:12:21.537Z,17.82
2022-12-27T12:18:13.577Z,17.81
2022-12-27T12:24:03.160Z,17.78
2022-12-27T12:29:55.302Z,17.78
2022-12-27T12:35:49.262Z,17.76
2022-12-27T12:41:44.122Z,17.75
2022-12-27T12:47:19.375Z,17.73
2022-12-27T12:53:02.628Z,17.74
2022-12-27T12:58:50.219Z,17.73
2022-12-27T13:04:39.969Z,17.71
2022-12-27T13:10:13.567Z,17.70
2022-12-27T13:15:53.587Z,17.68
2022-12-27T13:21:48.264Z,17.71
2022-12-27T13:27:10.016Z,17.69
2022-12-27T13:32:47.158Z,17.70
2022-12-27T13:38:23.970Z,17.70
2022-12-27T13:44:10.393Z,17.70
2022-12-27T13:49:49.605Z,17.69
2022-12-27T13:55:49.922Z,17.68
2022-12-27T14:01:46.246Z,17.67
2022-12-27T14:07:26.088Z,17.65
2022-12-27T14:12:58.597Z,17.66
2022-12-27T14:18:37.720Z,17.65
2022-12-27T14:24:08.423Z,17.65
2022-12-27T14:30:05.456Z,17.66
2022-12-27T14:36:04.646Z,17.65
2022-12-27T14:42:05.131Z,17.63
2022-12-27T14:47:51.475Z,17.64
2022-12-27T14:53:30.025Z,17.69
2022-12-27T14:59:21.818Z,17.74
2022-12-27T15:04:58.495Z,17.75
2022-12-27T15:10:47.957Z,17.77
2022-12-27T15:16:28.105Z,17.77
2022-12-27T15:22:18.499Z,17.79
2022-12-27T15:27:48.093Z,17.79
2022-12-27T15:33:18.677Z,17.81
2022-12-27T15:38:53.992Z,17.82
2022-12-27T15:44:25.657Z,17.78
2022-12-27T15:50:00.669Z,17.83
2022-12-27T15:56:00.059Z,17.81
2022-12-27T16:01:28.809Z,17.80
2022-12-27T16:06:52.286Z,17.78
2022-12-27T16:12:37.720Z,17.80
2022-12-27T16:17:59.666Z,17.77
2022-12-27T16:23:31.421Z,17.75
2022-12-27T16:28:59.819Z,17.70
2022-12-27T16:34:21.568Z,17.67
2022-12-27T16:39:58.714Z,17.66
2022-12-27T16:45:38.992Z,17.65
2022-12-27T16:51:07.823Z,17.64
2022-12-27T16:56:32.745Z,17.64
2022-12-27T17:01:54.650Z,17.62
2022-12-27T17:07:54.067Z,17.62
2022-12-27T17:13:21.537Z,17.58
2022-12-27T17:18:48.388Z,17.54
2022-12-27T17:24:18.738Z,17.54
2022-12-27T17:29:47.900Z,17.52
2022-12-27T17:35:29.205Z,17.52
2022-12-27T17:41:47.247Z,17.52
2022-12-27T17:47:28.445Z,17.50
2022-12-27T17:53:28.973Z,17.52
2022-12-27T17:58:53.790Z,17.50
2022-12-27T18:04:31.167Z,17.52
2022-12-27T18:09:58.364Z,17.56
2022-12-27T18:15:25.554Z,17.81
2022-12-27T18:20:54.969Z,18.28
2022-12-27T18:26:16.761Z,18.81
2022-12-27T18:31:48.957Z,19.28
2022-12-27T18:37:16.825Z,19.73
2022-12-27T18:42:45.061Z,20.11
2022-12-27T18:48:12.312Z,20.33
2022-12-27T18:53:37.879Z,20.38
2022-12-27T18:59:00.800Z,20.32
2022-12-27T19:04:29.064Z,20.24
2022-12-27T19:09:58.310Z,20.12
2022-12-27T19:15:28.357Z,19.97
2022-12-27T19:20:54.976Z,19.83
2022-12-27T19:26:16.631Z,19.73
2022-12-27T19:31:42.063Z,19.69
2022-12-27T19:37:03.823Z,19.69
2022-12-27T19:42:31.926Z,19.92
2022-12-27T19:47:54.872Z,20.18
2022-12-27T19:53:19.761Z,20.45
2022-12-27T19:58:41.513Z,20.71
2022-12-27T20:04:03.350Z,20.93
2022-12-27T20:09:25.064Z,21.09
2022-12-27T20:14:47.663Z,21.21
2022-12-27T20:20:10.631Z,21.33
2022-12-27T20:25:33.298Z,21.45
2022-12-27T20:30:55.123Z,21.54
2022-12-27T20:36:16.865Z,21.62
2022-12-27T20:41:38.618Z,21.70
2022-12-27T20:47:00.390Z,21.74
2022-12-27T20:52:25.764Z,21.72
2022-12-27T20:57:52.494Z,21.62
2022-12-27T21:03:14.308Z,21.51
2022-12-27T21:08:44.556Z,21.39
2022-12-27T21:14:11.877Z,21.25
2022-12-27T21:19:33.648Z,21.05
2022-12-27T21:24:55.407Z,20.87
2022-12-27T21:30:17.222Z,20.71
2022-12-27T21:35:38.921Z,20.56
2022-12-27T21:41:03.613Z,20.46
2022-12-27T21:46:28.053Z,20.32
2022-12-27T21:51:50.046Z,20.18
2022-12-27T21:57:11.754Z,20.02
2022-12-27T22:02:33.538Z,19.89
2022-12-27T22:07:55.988Z,19.77
2022-12-27T22:13:17.672Z,19.66
2022-12-27T22:18:44.482Z,19.55
2022-12-27T22:24:07.065Z,19.48
2022-12-27T22:29:34.866Z,19.41
2022-12-27T22:34:57.039Z,19.33
2022-12-27T22:40:18.727Z,19.27
2022-12-27T22:45:54.060Z,19.21
2022-12-27T22:51:18.432Z,19.16
2022-12-27T22:56:42.354Z,19.10
2022-12-27T23:02:04.240Z,19.06
2022-12-27T23:08:03.480Z,19.00
2022-12-27T23:13:07.683Z,18.95
2022-12-27T23:18:30.115Z,18.90
2022-12-27T23:23:52.641Z,18.87
2022-12-27T23:29:15.497Z,18.82
2022-12-27T23:34:37.243Z,18.80
2022-12-27T23:39:59.063Z,18.75
2022-12-27T23:45:20.778Z,18.72
2022-12-27T23:50:42.856Z,18.68
2022-12-27T23:56:30.057Z,18.66
